sensor_id;sensor_type;location;lat;lon;timestamp;P1;durP1;ratioP1;P2;durP2;ratioP2
26082;SDS011;13848;49.018;12.078;2022-10-31T00:01:11;12.43;;;6.10;;
26082;SDS011;13848;49.018;12.078;2022-10-31T00:03:39;10.10;;;5.95;;
26082;SDS011;13848;49.018;12.078;2022-10-31T00:06:05;11.63;;;5.78;;
26082;SDS011;13848;49.018;12.078;2022-10-31T00:08:31;12.50;;;5.85;;
26082;SDS011;13848;49.018;12.078;2022-10-31T00:10:57;9.30;;;5.70;;
26082;SDS011;13848;49.018;12.078;2022-10-31T00:13:24;12.00;;;6.47;;
26082;SDS011;13848;49.018;12.078;2022-10-31T00:15:50;11.57;;;6.00;;
26082;SDS011;13848;49.018;12.078;2022-10-31T00:18:16;12.73;;;5.88;;
26082;SDS011;13848;49.018;12.078;2022-10-31T00:20:42;9.43;;;5.75;;
26082;SDS011;13848;49.018;12.078;2022-10-31T00:23:09;9.90;;;5.35;;
26082;SDS011;13848;49.018;12.078;2022-10-31T00:25:36;13.80;;;5.72;;
26082;SDS011;13848;49.018;12.078;2022-10-31T00:28:04;10.30;;;5.57;;
26082;SDS011;13848;49.018;12.078;2022-10-31T00:30:32;12.25;;;5.97;;
26082;SDS011;13848;49.018;12.078;2022-10-31T00:32:58;9.25;;;5.45;;
26082;SDS011;13848;49.018;12.078;2022-10-31T00:35:24;11.60;;;6.10;;
26082;SDS011;13848;49.018;12.078;2022-10-31T00:37:51;11.88;;;5.55;;
26082;SDS011;13848;49.018;12.078;2022-10-31T00:40:17;12.45;;;5.55;;
26082;SDS011;13848;49.018;12.078;2022-10-31T00:42:43;9.95;;;5.60;;
26082;SDS011;13848;49.018;12.078;2022-10-31T00:45:09;11.32;;;5.60;;
26082;SDS011;13848;49.018;12.078;2022-10-31T00:47:37;12.40;;;5.93;;
26082;SDS011;13848;49.018;12.078;2022-10-31T00:50:04;9.25;;;5.00;;
26082;SDS011;13848;49.018;12.078;2022-10-31T00:52:30;13.95;;;6.03;;
26082;SDS011;13848;49.018;12.078;2022-10-31T00:54:56;8.82;;;5.60;;
26082;SDS011;13848;49.018;12.078;2022-10-31T00:57:22;8.55;;;5.35;;
26082;SDS011;13848;49.018;12.078;2022-10-31T00:59:48;12.45;;;5.60;;
26082;SDS011;13848;49.018;12.078;2022-10-31T01:02:14;10.65;;;5.45;;
26082;SDS011;13848;49.018;12.078;2022-10-31T01:04:41;9.43;;;5.30;;
26082;SDS011;13848;49.018;12.078;2022-10-31T01:07:07;9.50;;;5.45;;
26082;SDS011;13848;49.018;12.078;2022-10-31T01:09:33;10.10;;;5.60;;
26082;SDS011;13848;49.018;12.078;2022-10-31T01:11:59;11.82;;;6.03;;
26082;SDS011;13848;49.018;12.078;2022-10-31T01:14:25;9.75;;;5.15;;
26082;SDS011;13848;49.018;12.078;2022-10-31T01:16:51;8.68;;;5.35;;
26082;SDS011;13848;49.018;12.078;2022-10-31T01:19:17;8.27;;;5.43;;
26082;SDS011;13848;49.018;12.078;2022-10-31T01:21:44;8.65;;;5.28;;
26082;SDS011;13848;49.018;12.078;2022-10-31T01:24:10;12.18;;;5.10;;
26082;SDS011;13848;49.018;12.078;2022-10-31T01:26:36;13.77;;;4.93;;
26082;SDS011;13848;49.018;12.078;2022-10-31T01:29:03;13.85;;;5.63;;
26082;SDS011;13848;49.018;12.078;2022-10-31T01:31:32;10.18;;;5.57;;
26082;SDS011;13848;49.018;12.078;2022-10-31T01:33:59;9.50;;;5.22;;
26082;SDS011;13848;49.018;12.078;2022-10-31T01:36:25;9.65;;;5.20;;
26082;SDS011;13848;49.018;12.078;2022-10-31T01:38:55;9.43;;;5.75;;
26082;SDS011;13848;49.018;12.078;2022-10-31T01:41:25;11.20;;;5.63;;
26082;SDS011;13848;49.018;12.078;2022-10-31T01:43:53;13.23;;;5.20;;
26082;SDS011;13848;49.018;12.078;2022-10-31T01:46:22;8.65;;;4.93;;
26082;SDS011;13848;49.018;12.078;2022-10-31T01:48:51;11.38;;;5.38;;
26082;SDS011;13848;49.018;12.078;2022-10-31T01:51:20;8.75;;;5.18;;
26082;SDS011;13848;49.018;12.078;2022-10-31T01:53:49;11.00;;;5.40;;
26082;SDS011;13848;49.018;12.078;2022-10-31T01:56:19;9.65;;;4.70;;
26082;SDS011;13848;49.018;12.078;2022-10-31T01:58:46;8.25;;;5.10;;
26082;SDS011;13848;49.018;12.078;2022-10-31T02:01:13;11.48;;;5.43;;
26082;SDS011;13848;49.018;12.078;2022-10-31T02:03:41;10.52;;;4.80;;
26082;SDS011;13848;49.018;12.078;2022-10-31T02:06:10;8.68;;;4.55;;
26082;SDS011;13848;49.018;12.078;2022-10-31T02:08:41;9.95;;;5.18;;
26082;SDS011;13848;49.018;12.078;2022-10-31T02:11:09;9.65;;;5.68;;
26082;SDS011;13848;49.018;12.078;2022-10-31T02:13:37;10.57;;;5.15;;
26082;SDS011;13848;49.018;12.078;2022-10-31T02:16:04;6.82;;;4.40;;
26082;SDS011;13848;49.018;12.078;2022-10-31T02:18:30;10.80;;;4.72;;
26082;SDS011;13848;49.018;12.078;2022-10-31T02:20:58;6.95;;;4.93;;
26082;SDS011;13848;49.018;12.078;2022-10-31T02:32:43;7.00;;;4.57;;
26082;SDS011;13848;49.018;12.078;2022-10-31T02:35:17;13.23;;;4.45;;
26082;SDS011;13848;49.018;12.078;2022-10-31T02:37:55;7.43;;;4.43;;
26082;SDS011;13848;49.018;12.078;2022-10-31T02:42:56;8.68;;;5.32;;
26082;SDS011;13848;49.018;12.078;2022-10-31T02:45:28;11.48;;;5.80;;
26082;SDS011;13848;49.018;12.078;2022-10-31T02:48:00;14.60;;;6.18;;
26082;SDS011;13848;49.018;12.078;2022-10-31T02:50:30;11.73;;;6.03;;
26082;SDS011;13848;49.018;12.078;2022-10-31T02:52:58;13.85;;;6.28;;
26082;SDS011;13848;49.018;12.078;2022-10-31T02:55:44;15.25;;;6.50;;
26082;SDS011;13848;49.018;12.078;2022-10-31T02:58:15;9.25;;;6.07;;
26082;SDS011;13848;49.018;12.078;2022-10-31T03:00:49;24.90;;;6.93;;
26082;SDS011;13848;49.018;12.078;2022-10-31T03:03:43;12.70;;;6.40;;
26082;SDS011;13848;49.018;12.078;2022-10-31T03:06:23;11.85;;;6.47;;
26082;SDS011;13848;49.018;12.078;2022-10-31T03:08:55;18.15;;;7.18;;
26082;SDS011;13848;49.018;12.078;2022-10-31T03:11:29;14.38;;;6.07;;
26082;SDS011;13848;49.018;12.078;2022-10-31T03:14:04;14.45;;;6.38;;
26082;SDS011;13848;49.018;12.078;2022-10-31T03:16:37;10.40;;;6.22;;
26082;SDS011;13848;49.018;12.078;2022-10-31T03:19:12;15.40;;;6.38;;
26082;SDS011;13848;49.018;12.078;2022-10-31T03:21:45;10.45;;;6.38;;
26082;SDS011;13848;49.018;12.078;2022-10-31T03:24:15;10.88;;;6.22;;
26082;SDS011;13848;49.018;12.078;2022-10-31T03:26:43;11.25;;;6.25;;
26082;SDS011;13848;49.018;12.078;2022-10-31T03:29:12;20.83;;;6.25;;
26082;SDS011;13848;49.018;12.078;2022-10-31T03:31:43;13.57;;;6.47;;
26082;SDS011;13848;49.018;12.078;2022-10-31T03:34:14;11.77;;;6.07;;
26082;SDS011;13848;49.018;12.078;2022-10-31T03:36:42;13.50;;;6.57;;
26082;SDS011;13848;49.018;12.078;2022-10-31T03:39:11;9.95;;;5.70;;
26082;SDS011;13848;49.018;12.078;2022-10-31T03:41:41;15.43;;;6.78;;
26082;SDS011;13848;49.018;12.078;2022-10-31T03:44:12;12.15;;;6.53;;
26082;SDS011;13848;49.018;12.078;2022-10-31T03:46:40;12.43;;;6.20;;
26082;SDS011;13848;49.018;12.078;2022-10-31T03:49:08;12.73;;;6.70;;
26082;SDS011;13848;49.018;12.078;2022-10-31T03:51:36;11.75;;;6.45;;
26082;SDS011;13848;49.018;12.078;2022-10-31T03:54:09;13.40;;;6.80;;
26082;SDS011;13848;49.018;12.078;2022-10-31T03:56:41;11.95;;;6.63;;
26082;SDS011;13848;49.018;12.078;2022-10-31T03:59:15;10.07;;;6.30;;
26082;SDS011;13848;49.018;12.078;2022-10-31T04:01:47;11.60;;;6.72;;
26082;SDS011;13848;49.018;12.078;2022-10-31T04:04:18;10.77;;;6.43;;
26082;SDS011;13848;49.018;12.078;2022-10-31T04:06:47;9.80;;;6.63;;
26082;SDS011;13848;49.018;12.078;2022-10-31T04:09:16;10.00;;;6.45;;
26082;SDS011;13848;49.018;12.078;2022-10-31T04:11:45;16.63;;;6.90;;
26082;SDS011;13848;49.018;12.078;2022-10-31T04:14:14;9.68;;;6.78;;
26082;SDS011;13848;49.018;12.078;2022-10-31T04:16:41;12.25;;;7.00;;
26082;SDS011;13848;49.018;12.078;2022-10-31T04:19:09;9.32;;;6.15;;
26082;SDS011;13848;49.018;12.078;2022-10-31T04:21:35;9.90;;;7.05;;
26082;SDS011;13848;49.018;12.078;2022-10-31T04:24:03;12.02;;;6.68;;
26082;SDS011;13848;49.018;12.078;2022-10-31T04:26:29;10.93;;;6.85;;
26082;SDS011;13848;49.018;12.078;2022-10-31T04:28:55;11.60;;;7.00;;
26082;SDS011;13848;49.018;12.078;2022-10-31T04:31:21;12.68;;;6.80;;
26082;SDS011;13848;49.018;12.078;2022-10-31T04:33:47;14.77;;;6.85;;
26082;SDS011;13848;49.018;12.078;2022-10-31T04:36:13;11.18;;;5.60;;
26082;SDS011;13848;49.018;12.078;2022-10-31T04:38:40;7.10;;;4.70;;
26082;SDS011;13848;49.018;12.078;2022-10-31T04:41:10;5.25;;;3.55;;
26082;SDS011;13848;49.018;12.078;2022-10-31T04:43:36;6.85;;;3.85;;
26082;SDS011;13848;49.018;12.078;2022-10-31T04:46:02;6.85;;;4.13;;
26082;SDS011;13848;49.018;12.078;2022-10-31T04:48:28;5.00;;;3.38;;
26082;SDS011;13848;49.018;12.078;2022-10-31T04:50:57;5.03;;;3.38;;
26082;SDS011;13848;49.018;12.078;2022-10-31T04:53:24;7.28;;;3.78;;
26082;SDS011;13848;49.018;12.078;2022-10-31T04:55:50;5.20;;;3.40;;
26082;SDS011;13848;49.018;12.078;2022-10-31T04:58:17;4.63;;;3.50;;
26082;SDS011;13848;49.018;12.078;2022-10-31T05:00:43;4.93;;;3.50;;
26082;SDS011;13848;49.018;12.078;2022-10-31T05:03:09;10.45;;;4.03;;
26082;SDS011;13848;49.018;12.078;2022-10-31T05:05:35;6.13;;;3.35;;
26082;SDS011;13848;49.018;12.078;2022-10-31T05:08:01;5.53;;;3.70;;
26082;SDS011;13848;49.018;12.078;2022-10-31T05:10:28;6.07;;;3.15;;
26082;SDS011;13848;49.018;12.078;2022-10-31T05:12:55;4.93;;;3.70;;
26082;SDS011;13848;49.018;12.078;2022-10-31T05:15:24;4.43;;;3.70;;
26082;SDS011;13848;49.018;12.078;2022-10-31T05:17:51;5.38;;;3.60;;
26082;SDS011;13848;49.018;12.078;2022-10-31T05:20:19;5.00;;;3.72;;
26082;SDS011;13848;49.018;12.078;2022-10-31T05:22:47;4.80;;;3.40;;
26082;SDS011;13848;49.018;12.078;2022-10-31T05:25:15;5.03;;;3.45;;
26082;SDS011;13848;49.018;12.078;2022-10-31T05:27:42;4.97;;;3.47;;
26082;SDS011;13848;49.018;12.078;2022-10-31T05:30:10;5.97;;;3.85;;
26082;SDS011;13848;49.018;12.078;2022-10-31T05:32:39;5.13;;;3.40;;
26082;SDS011;13848;49.018;12.078;2022-10-31T05:35:06;7.20;;;3.58;;
26082;SDS011;13848;49.018;12.078;2022-10-31T05:37:32;4.95;;;3.55;;
26082;SDS011;13848;49.018;12.078;2022-10-31T05:39:58;4.22;;;3.33;;
26082;SDS011;13848;49.018;12.078;2022-10-31T05:42:24;4.65;;;3.60;;
26082;SDS011;13848;49.018;12.078;2022-10-31T05:44:50;4.75;;;3.50;;
26082;SDS011;13848;49.018;12.078;2022-10-31T05:47:16;5.32;;;3.35;;
26082;SDS011;13848;49.018;12.078;2022-10-31T05:49:43;4.07;;;3.05;;
26082;SDS011;13848;49.018;12.078;2022-10-31T05:52:09;4.00;;;3.05;;
26082;SDS011;13848;49.018;12.078;2022-10-31T05:54:35;4.55;;;3.10;;
26082;SDS011;13848;49.018;12.078;2022-10-31T05:57:01;4.30;;;3.20;;
26082;SDS011;13848;49.018;12.078;2022-10-31T05:59:27;4.70;;;3.25;;
26082;SDS011;13848;49.018;12.078;2022-10-31T06:01:53;3.58;;;2.70;;
26082;SDS011;13848;49.018;12.078;2022-10-31T06:04:19;3.35;;;2.90;;
26082;SDS011;13848;49.018;12.078;2022-10-31T06:06:46;4.50;;;3.13;;
26082;SDS011;13848;49.018;12.078;2022-10-31T06:09:12;4.07;;;2.92;;
26082;SDS011;13848;49.018;12.078;2022-10-31T06:11:38;3.78;;;2.88;;
26082;SDS011;13848;49.018;12.078;2022-10-31T06:14:04;3.92;;;3.15;;
26082;SDS011;13848;49.018;12.078;2022-10-31T06:16:30;4.18;;;3.17;;
26082;SDS011;13848;49.018;12.078;2022-10-31T06:18:56;4.68;;;3.40;;
26082;SDS011;13848;49.018;12.078;2022-10-31T06:21:22;4.63;;;3.45;;
26082;SDS011;13848;49.018;12.078;2022-10-31T06:23:49;3.67;;;3.08;;
26082;SDS011;13848;49.018;12.078;2022-10-31T06:26:15;4.30;;;3.60;;
26082;SDS011;13848;49.018;12.078;2022-10-31T06:28:41;5.07;;;3.40;;
26082;SDS011;13848;49.018;12.078;2022-10-31T06:31:07;4.35;;;3.30;;
26082;SDS011;13848;49.018;12.078;2022-10-31T06:33:33;7.07;;;3.50;;
26082;SDS011;13848;49.018;12.078;2022-10-31T06:35:59;6.05;;;3.85;;
26082;SDS011;13848;49.018;12.078;2022-10-31T06:38:25;7.03;;;4.05;;
26082;SDS011;13848;49.018;12.078;2022-10-31T06:40:53;5.38;;;3.70;;
26082;SDS011;13848;49.018;12.078;2022-10-31T06:43:19;6.28;;;4.18;;
26082;SDS011;13848;49.018;12.078;2022-10-31T06:45:46;6.65;;;4.38;;
26082;SDS011;13848;49.018;12.078;2022-10-31T06:48:12;20.42;;;3.85;;
26082;SDS011;13848;49.018;12.078;2022-10-31T06:50:38;5.18;;;3.75;;
26082;SDS011;13848;49.018;12.078;2022-10-31T06:53:04;5.90;;;3.38;;
26082;SDS011;13848;49.018;12.078;2022-10-31T06:55:30;9.57;;;4.65;;
26082;SDS011;13848;49.018;12.078;2022-10-31T06:57:58;8.27;;;3.90;;
26082;SDS011;13848;49.018;12.078;2022-10-31T07:00:25;5.95;;;3.97;;
26082;SDS011;13848;49.018;12.078;2022-10-31T07:02:54;6.50;;;4.32;;
26082;SDS011;13848;49.018;12.078;2022-10-31T07:05:20;8.10;;;4.10;;
26082;SDS011;13848;49.018;12.078;2022-10-31T07:07:46;6.97;;;4.03;;
26082;SDS011;13848;49.018;12.078;2022-10-31T07:10:12;6.55;;;4.00;;
26082;SDS011;13848;49.018;12.078;2022-10-31T07:12:38;5.45;;;4.30;;
26082;SDS011;13848;49.018;12.078;2022-10-31T07:15:06;10.93;;;4.55;;
26082;SDS011;13848;49.018;12.078;2022-10-31T07:17:32;8.68;;;4.63;;
26082;SDS011;13848;49.018;12.078;2022-10-31T07:19:58;8.98;;;4.63;;
26082;SDS011;13848;49.018;12.078;2022-10-31T07:22:24;9.57;;;4.85;;
26082;SDS011;13848;49.018;12.078;2022-10-31T07:24:50;11.75;;;5.28;;
26082;SDS011;13848;49.018;12.078;2022-10-31T07:27:16;11.27;;;5.25;;
26082;SDS011;13848;49.018;12.078;2022-10-31T07:29:42;10.55;;;4.88;;
26082;SDS011;13848;49.018;12.078;2022-10-31T07:32:09;9.23;;;5.00;;
26082;SDS011;13848;49.018;12.078;2022-10-31T07:34:35;9.98;;;5.13;;
26082;SDS011;13848;49.018;12.078;2022-10-31T07:37:01;11.07;;;5.53;;
26082;SDS011;13848;49.018;12.078;2022-10-31T07:39:27;8.43;;;5.32;;
26082;SDS011;13848;49.018;12.078;2022-10-31T07:41:53;16.42;;;5.60;;
26082;SDS011;13848;49.018;12.078;2022-10-31T07:44:19;15.23;;;5.32;;
26082;SDS011;13848;49.018;12.078;2022-10-31T07:46:45;12.45;;;5.63;;
26082;SDS011;13848;49.018;12.078;2022-10-31T07:49:12;11.00;;;5.10;;
26082;SDS011;13848;49.018;12.078;2022-10-31T07:51:38;8.80;;;5.20;;
26082;SDS011;13848;49.018;12.078;2022-10-31T07:54:04;12.52;;;5.28;;
26082;SDS011;13848;49.018;12.078;2022-10-31T07:56:30;11.38;;;5.35;;
26082;SDS011;13848;49.018;12.078;2022-10-31T07:58:56;11.82;;;5.68;;
26082;SDS011;13848;49.018;12.078;2022-10-31T08:01:22;10.35;;;5.22;;
26082;SDS011;13848;49.018;12.078;2022-10-31T08:03:48;9.32;;;5.47;;
26082;SDS011;13848;49.018;12.078;2022-10-31T08:06:15;9.43;;;4.88;;
26082;SDS011;13848;49.018;12.078;2022-10-31T08:08:41;11.38;;;5.32;;
26082;SDS011;13848;49.018;12.078;2022-10-31T08:11:07;7.38;;;4.80;;
26082;SDS011;13848;49.018;12.078;2022-10-31T08:13:33;10.43;;;5.07;;
26082;SDS011;13848;49.018;12.078;2022-10-31T08:15:59;8.27;;;5.00;;
26082;SDS011;13848;49.018;12.078;2022-10-31T08:18:25;8.50;;;5.60;;
26082;SDS011;13848;49.018;12.078;2022-10-31T08:20:51;13.82;;;5.47;;
26082;SDS011;13848;49.018;12.078;2022-10-31T08:23:20;6.47;;;4.95;;
26082;SDS011;13848;49.018;12.078;2022-10-31T08:25:49;8.43;;;4.88;;
26082;SDS011;13848;49.018;12.078;2022-10-31T08:28:15;17.10;;;5.10;;
26082;SDS011;13848;49.018;12.078;2022-10-31T08:30:41;8.43;;;5.05;;
26082;SDS011;13848;49.018;12.078;2022-10-31T08:33:08;9.27;;;5.65;;
26082;SDS011;13848;49.018;12.078;2022-10-31T08:35:36;8.88;;;5.47;;
26082;SDS011;13848;49.018;12.078;2022-10-31T08:38:02;9.85;;;5.18;;
26082;SDS011;13848;49.018;12.078;2022-10-31T08:40:30;10.18;;;5.45;;
26082;SDS011;13848;49.018;12.078;2022-10-31T08:42:57;8.48;;;5.30;;
26082;SDS011;13848;49.018;12.078;2022-10-31T08:45:26;9.07;;;5.43;;
26082;SDS011;13848;49.018;12.078;2022-10-31T08:47:52;18.98;;;5.53;;
26082;SDS011;13848;49.018;12.078;2022-10-31T08:50:22;8.77;;;5.57;;
26082;SDS011;13848;49.018;12.078;2022-10-31T08:52:48;7.93;;;5.50;;
26082;SDS011;13848;49.018;12.078;2022-10-31T08:55:14;9.98;;;5.65;;
26082;SDS011;13848;49.018;12.078;2022-10-31T08:57:42;13.98;;;6.30;;
26082;SDS011;13848;49.018;12.078;2022-10-31T09:00:08;16.23;;;6.00;;
26082;SDS011;13848;49.018;12.078;2022-10-31T09:02:35;20.45;;;6.28;;
26082;SDS011;13848;49.018;12.078;2022-10-31T09:05:01;10.88;;;6.00;;
26082;SDS011;13848;49.018;12.078;2022-10-31T09:07:27;9.93;;;5.70;;
26082;SDS011;13848;49.018;12.078;2022-10-31T09:09:53;9.45;;;6.32;;
26082;SDS011;13848;49.018;12.078;2022-10-31T09:12:19;11.93;;;6.25;;
26082;SDS011;13848;49.018;12.078;2022-10-31T09:14:46;10.25;;;6.50;;
26082;SDS011;13848;49.018;12.078;2022-10-31T09:17:12;11.15;;;6.50;;
26082;SDS011;13848;49.018;12.078;2022-10-31T09:19:38;8.65;;;6.60;;
26082;SDS011;13848;49.018;12.078;2022-10-31T09:22:04;10.35;;;7.15;;
26082;SDS011;13848;49.018;12.078;2022-10-31T09:24:30;9.15;;;6.43;;
26082;SDS011;13848;49.018;12.078;2022-10-31T09:26:57;13.45;;;7.55;;
26082;SDS011;13848;49.018;12.078;2022-10-31T09:29:23;15.73;;;7.35;;
26082;SDS011;13848;49.018;12.078;2022-10-31T09:31:51;12.90;;;7.72;;
26082;SDS011;13848;49.018;12.078;2022-10-31T09:34:17;10.75;;;7.20;;
26082;SDS011;13848;49.018;12.078;2022-10-31T09:36:43;9.45;;;7.18;;
26082;SDS011;13848;49.018;12.078;2022-10-31T09:39:08;13.05;;;7.07;;
26082;SDS011;13848;49.018;12.078;2022-10-31T09:41:40;11.55;;;7.43;;
26082;SDS011;13848;49.018;12.078;2022-10-31T09:44:24;11.65;;;7.20;;
26082;SDS011;13848;49.018;12.078;2022-10-31T09:46:58;13.90;;;7.13;;
26082;SDS011;13848;49.018;12.078;2022-10-31T09:49:35;13.35;;;7.43;;
26082;SDS011;13848;49.018;12.078;2022-10-31T09:52:10;10.07;;;7.40;;
26082;SDS011;13848;49.018;12.078;2022-10-31T09:54:43;11.32;;;8.00;;
26082;SDS011;13848;49.018;12.078;2022-10-31T09:57:13;12.38;;;8.02;;
26082;SDS011;13848;49.018;12.078;2022-10-31T09:59:41;13.75;;;8.15;;
26082;SDS011;13848;49.018;12.078;2022-10-31T10:02:13;15.32;;;8.50;;
26082;SDS011;13848;49.018;12.078;2022-10-31T10:04:46;11.05;;;7.82;;
26082;SDS011;13848;49.018;12.078;2022-10-31T10:07:21;9.35;;;7.50;;
26082;SDS011;13848;49.018;12.078;2022-10-31T10:09:51;12.73;;;8.35;;
26082;SDS011;13848;49.018;12.078;2022-10-31T10:12:33;13.90;;;9.68;;
26082;SDS011;13848;49.018;12.078;2022-10-31T10:15:24;14.23;;;8.00;;
26082;SDS011;13848;49.018;12.078;2022-10-31T10:18:04;12.45;;;8.70;;
26082;SDS011;13848;49.018;12.078;2022-10-31T10:20:41;12.52;;;8.82;;
26082;SDS011;13848;49.018;12.078;2022-10-31T10:23:36;12.93;;;8.60;;
26082;SDS011;13848;49.018;12.078;2022-10-31T10:26:13;16.05;;;9.18;;
26082;SDS011;13848;49.018;12.078;2022-10-31T10:28:43;14.52;;;8.55;;
26082;SDS011;13848;49.018;12.078;2022-10-31T10:31:13;13.35;;;8.63;;
26082;SDS011;13848;49.018;12.078;2022-10-31T10:33:42;12.82;;;8.90;;
26082;SDS011;13848;49.018;12.078;2022-10-31T10:36:12;16.92;;;9.48;;
26082;SDS011;13848;49.018;12.078;2022-10-31T10:38:45;15.65;;;9.75;;
26082;SDS011;13848;49.018;12.078;2022-10-31T10:41:16;13.88;;;9.52;;
26082;SDS011;13848;49.018;12.078;2022-10-31T10:43:44;18.85;;;11.43;;
26082;SDS011;13848;49.018;12.078;2022-10-31T10:46:17;20.80;;;11.65;;
26082;SDS011;13848;49.018;12.078;2022-10-31T10:48:48;21.30;;;11.63;;
26082;SDS011;13848;49.018;12.078;2022-10-31T10:51:20;18.33;;;12.05;;
26082;SDS011;13848;49.018;12.078;2022-10-31T10:53:55;17.80;;;11.30;;
26082;SDS011;13848;49.018;12.078;2022-10-31T10:56:37;16.92;;;10.27;;
26082;SDS011;13848;49.018;12.078;2022-10-31T10:59:11;19.13;;;11.02;;
26082;SDS011;13848;49.018;12.078;2022-10-31T11:01:41;21.02;;;12.40;;
26082;SDS011;13848;49.018;12.078;2022-10-31T11:04:14;22.23;;;13.00;;
26082;SDS011;13848;49.018;12.078;2022-10-31T11:07:01;22.40;;;12.20;;
26082;SDS011;13848;49.018;12.078;2022-10-31T11:09:29;19.88;;;12.60;;
26082;SDS011;13848;49.018;12.078;2022-10-31T11:11:55;19.00;;;12.23;;
26082;SDS011;13848;49.018;12.078;2022-10-31T11:14:22;22.48;;;13.35;;
26082;SDS011;13848;49.018;12.078;2022-10-31T11:16:49;23.45;;;13.52;;
26082;SDS011;13848;49.018;12.078;2022-10-31T11:19:21;22.33;;;12.93;;
26082;SDS011;13848;49.018;12.078;2022-10-31T11:21:49;24.15;;;13.15;;
26082;SDS011;13848;49.018;12.078;2022-10-31T11:24:16;23.02;;;13.25;;
26082;SDS011;13848;49.018;12.078;2022-10-31T11:26:44;21.08;;;13.48;;
26082;SDS011;13848;49.018;12.078;2022-10-31T11:29:13;20.40;;;13.63;;
26082;SDS011;13848;49.018;12.078;2022-10-31T11:31:40;21.27;;;13.77;;
26082;SDS011;13848;49.018;12.078;2022-10-31T11:34:12;21.30;;;13.80;;
26082;SDS011;13848;49.018;12.078;2022-10-31T11:36:46;22.00;;;12.77;;
26082;SDS011;13848;49.018;12.078;2022-10-31T11:39:15;24.48;;;13.02;;
26082;SDS011;13848;49.018;12.078;2022-10-31T11:41:44;19.85;;;13.20;;
26082;SDS011;13848;49.018;12.078;2022-10-31T11:44:12;20.25;;;13.02;;
26082;SDS011;13848;49.018;12.078;2022-10-31T11:46:41;22.30;;;14.00;;
26082;SDS011;13848;49.018;12.078;2022-10-31T11:49:13;24.13;;;14.30;;
26082;SDS011;13848;49.018;12.078;2022-10-31T11:51:46;25.15;;;12.80;;
26082;SDS011;13848;49.018;12.078;2022-10-31T11:54:20;19.25;;;12.23;;
26082;SDS011;13848;49.018;12.078;2022-10-31T11:56:49;18.65;;;11.65;;
26082;SDS011;13848;49.018;12.078;2022-10-31T11:59:17;20.35;;;12.05;;
26082;SDS011;13848;49.018;12.078;2022-10-31T12:01:48;18.50;;;11.48;;
26082;SDS011;13848;49.018;12.078;2022-10-31T12:04:15;24.58;;;12.13;;
26082;SDS011;13848;49.018;12.078;2022-10-31T12:06:42;18.90;;;11.48;;
26082;SDS011;13848;49.018;12.078;2022-10-31T12:09:14;20.67;;;12.10;;
26082;SDS011;13848;49.018;12.078;2022-10-31T12:11:47;22.00;;;11.73;;
26082;SDS011;13848;49.018;12.078;2022-10-31T12:14:28;19.23;;;11.40;;
26082;SDS011;13848;49.018;12.078;2022-10-31T12:17:03;20.20;;;12.50;;
26082;SDS011;13848;49.018;12.078;2022-10-31T12:19:36;18.85;;;11.00;;
26082;SDS011;13848;49.018;12.078;2022-10-31T12:22:12;20.88;;;11.65;;
26082;SDS011;13848;49.018;12.078;2022-10-31T12:24:48;26.77;;;11.93;;
26082;SDS011;13848;49.018;12.078;2022-10-31T12:27:26;19.73;;;11.55;;
26082;SDS011;13848;49.018;12.078;2022-10-31T12:30:09;17.77;;;11.60;;
26082;SDS011;13848;49.018;12.078;2022-10-31T12:32:43;15.65;;;11.25;;
26082;SDS011;13848;49.018;12.078;2022-10-31T12:35:29;18.88;;;11.38;;
26082;SDS011;13848;49.018;12.078;2022-10-31T12:38:09;18.58;;;11.50;;
26082;SDS011;13848;49.018;12.078;2022-10-31T12:40:51;17.85;;;11.98;;
26082;SDS011;13848;49.018;12.078;2022-10-31T12:43:33;19.90;;;10.90;;
26082;SDS011;13848;49.018;12.078;2022-10-31T12:46:04;21.35;;;11.38;;
26082;SDS011;13848;49.018;12.078;2022-10-31T12:51:37;20.25;;;11.73;;
26082;SDS011;13848;49.018;12.078;2022-10-31T12:54:19;19.73;;;12.05;;
26082;SDS011;13848;49.018;12.078;2022-10-31T12:56:59;18.40;;;12.00;;
26082;SDS011;13848;49.018;12.078;2022-10-31T12:59:33;17.98;;;12.00;;
26082;SDS011;13848;49.018;12.078;2022-10-31T13:02:04;17.35;;;11.68;;
26082;SDS011;13848;49.018;12.078;2022-10-31T13:04:39;21.88;;;11.63;;
26082;SDS011;13848;49.018;12.078;2022-10-31T13:07:11;18.17;;;11.55;;
26082;SDS011;13848;49.018;12.078;2022-10-31T13:12:12;17.02;;;11.23;;
26082;SDS011;13848;49.018;12.078;2022-10-31T13:14:42;18.13;;;12.27;;
26082;SDS011;13848;49.018;12.078;2022-10-31T13:17:13;19.13;;;11.63;;
26082;SDS011;13848;49.018;12.078;2022-10-31T13:19:47;21.02;;;12.43;;
26082;SDS011;13848;49.018;12.078;2022-10-31T13:22:16;16.95;;;12.57;;
26082;SDS011;13848;49.018;12.078;2022-10-31T13:24:47;21.98;;;12.40;;
26082;SDS011;13848;49.018;12.078;2022-10-31T13:27:22;23.00;;;12.68;;
26082;SDS011;13848;49.018;12.078;2022-10-31T13:29:53;21.23;;;12.32;;
26082;SDS011;13848;49.018;12.078;2022-10-31T13:32:26;24.77;;;13.45;;
26082;SDS011;13848;49.018;12.078;2022-10-31T13:35:02;21.42;;;13.27;;
26082;SDS011;13848;49.018;12.078;2022-10-31T13:37:29;19.20;;;13.20;;
26082;SDS011;13848;49.018;12.078;2022-10-31T13:40:04;19.63;;;12.90;;
26082;SDS011;13848;49.018;12.078;2022-10-31T13:42:44;20.98;;;13.48;;
26082;SDS011;13848;49.018;12.078;2022-10-31T13:45:19;24.70;;;13.57;;
26082;SDS011;13848;49.018;12.078;2022-10-31T13:47:54;27.10;;;13.65;;
26082;SDS011;13848;49.018;12.078;2022-10-31T13:50:23;23.70;;;13.20;;
26082;SDS011;13848;49.018;12.078;2022-10-31T13:52:51;23.48;;;12.77;;
26082;SDS011;13848;49.018;12.078;2022-10-31T13:55:37;20.55;;;13.05;;
26082;SDS011;13848;49.018;12.078;2022-10-31T13:58:19;22.40;;;13.27;;
26082;SDS011;13848;49.018;12.078;2022-10-31T14:00:57;25.48;;;12.85;;
26082;SDS011;13848;49.018;12.078;2022-10-31T14:03:24;29.67;;;13.27;;
26082;SDS011;13848;49.018;12.078;2022-10-31T14:05:51;25.75;;;13.88;;
26082;SDS011;13848;49.018;12.078;2022-10-31T14:08:20;21.73;;;13.35;;
26082;SDS011;13848;49.018;12.078;2022-10-31T14:10:48;21.40;;;12.20;;
26082;SDS011;13848;49.018;12.078;2022-10-31T14:13:20;22.60;;;12.63;;
26082;SDS011;13848;49.018;12.078;2022-10-31T14:15:52;23.38;;;12.45;;
26082;SDS011;13848;49.018;12.078;2022-10-31T14:18:21;19.63;;;12.45;;
26082;SDS011;13848;49.018;12.078;2022-10-31T14:20:50;23.35;;;12.18;;
26082;SDS011;13848;49.018;12.078;2022-10-31T14:23:34;26.23;;;12.07;;
26082;SDS011;13848;49.018;12.078;2022-10-31T14:26:29;21.10;;;12.13;;
26082;SDS011;13848;49.018;12.078;2022-10-31T14:28:59;19.35;;;12.43;;
26082;SDS011;13848;49.018;12.078;2022-10-31T14:31:28;25.23;;;12.73;;
26082;SDS011;13848;49.018;12.078;2022-10-31T14:33:57;20.42;;;13.98;;
26082;SDS011;13848;49.018;12.078;2022-10-31T14:36:24;19.02;;;12.55;;
26082;SDS011;13848;49.018;12.078;2022-10-31T14:38:56;26.48;;;13.88;;
26082;SDS011;13848;49.018;12.078;2022-10-31T14:41:37;20.33;;;13.00;;
26082;SDS011;13848;49.018;12.078;2022-10-31T14:47:14;28.42;;;14.77;;
26082;SDS011;13848;49.018;12.078;2022-10-31T14:52:48;24.95;;;13.70;;
26082;SDS011;13848;49.018;12.078;2022-10-31T14:55:16;27.75;;;14.20;;
26082;SDS011;13848;49.018;12.078;2022-10-31T14:57:44;22.13;;;14.52;;
26082;SDS011;13848;49.018;12.078;2022-10-31T15:00:18;23.85;;;14.60;;